Fecha, hora, temperatura, viento dirección y velocidad, humedad y presión.

  • 12-12-2018 16:00:00 | 18.20°C | Este |8.00 km/h | 53.00% | 1014.10 hPa
  • 12-12-2018 15:00:00 | 18.50°C | Este |12.00 km/h | 52.00% | 1014.30 hPa
  • 12-12-2018 13:00:00 | 0.00°C | 0 |0.00 km/h | 0.00% | 0.00 hPa
  • 12-12-2018 12:00:00 | 19.80°C | Nordeste |3.00 km/h | 36.00% | 1016.80 hPa
  • 12-12-2018 12:00:00 | 19.80°C | Nordeste |3.00 km/h | 36.00% | 1016.80 hPa
  • 12-12-2018 11:00:00 | 18.00°C | Noroeste |10.00 km/h | 44.00% | 1017.20 hPa
  • 12-12-2018 10:00:00 | 15.90°C | Noroeste |13.00 km/h | 54.00% | 1017.10 hPa
  • 12-12-2018 09:00:00 | 14.10°C | Noroeste |16.00 km/h | 59.00% | 1017.00 hPa
  • 12-12-2018 08:00:00 | 13.90°C | Sur |7.00 km/h | 59.00% | 1016.20 hPa
  • 12-12-2018 06:00:00 | 13.90°C | Oeste |17.00 km/h | 57.00% | 1015.50 hPa
  • 12-12-2018 05:00:00 | 13.40°C | Oeste |12.00 km/h | 59.00% | 1015.70 hPa
  • 12-12-2018 04:00:00 | 14.60°C | Oeste |15.00 km/h | 53.00% | 1015.80 hPa
  • 12-12-2018 03:00:00 | 15.20°C | Oeste |19.00 km/h | 51.00% | 1015.80 hPa
  • 12-12-2018 02:00:00 | 15.60°C | Oeste |17.00 km/h | 50.00% | 1015.60 hPa
  • 12-12-2018 01:00:00 | 16.20°C | Oeste |12.00 km/h | 50.00% | 1016.10 hPa
  • 12-12-2018 00:00:00 | 14.30°C | Sudoeste |11.00 km/h | 59.00% | 1016.50 hPa
  • 11-12-2018 23:00:00 | 11.40°C | Sudoeste |14.00 km/h | 77.00% | 1016.60 hPa
  • 11-12-2018 22:00:00 | 11.10°C | Sudoeste |9.00 km/h | 79.00% | 1016.90 hPa
  • 11-12-2018 21:00:00 | 11.30°C | Oeste |7.00 km/h | 79.00% | 1016.90 hPa
  • 11-12-2018 20:00:00 | 11.10°C | Oeste |10.00 km/h | 83.00% | 1017.30 hPa
  • 11-12-2018 19:00:00 | 12.40°C | Sudoeste |8.00 km/h | 84.00% | 1017.10 hPa
  • 11-12-2018 18:00:00 | 13.90°C | Sudoeste |5.00 km/h | 84.00% | 1017.20 hPa
  • 11-12-2018 17:00:00 | 16.30°C | Sur |9.00 km/h | 77.00% | 1017.20 hPa
  • 11-12-2018 16:00:00 | 17.10°C | Sur |12.00 km/h | 71.00% | 1017.20 hPa
    • diseño web asturias Información sobre el estado de las mareas, altura de la marejada, temperatura del agua y otros datos de Gijón en Asturias.

      Surf Gijón